Time;durP1;ratioP1;P1;durP2;ratioP2;P2;SDS_P1;SDS_P2;PMS_P1;PMS_P2;Temp;Humidity;BMP_temperature;BMP_pressure;BME280_temperature;BME280_humidity;BME280_pressure;Samples;Min_cycle;Max_cycle;Signal;HPM_P1;HPM_P2
2021/05/19 00:00:03;;;;;;;2.60;2.10;;;;;;;;;;4925579;28;20051;-80
2021/05/19 00:02:29;;;;;;;2.90;2.20;;;;;;;;;;4920981;28;20067;-80
2021/05/19 00:04:59;;;;;;;2.60;2.00;;;;;;;;;;4909313;28;20487;-79
2021/05/19 00:07:25;;;;;;;2.70;1.92;;;;;;;;;;4923395;28;20758;-81
2021/05/19 00:09:52;;;;;;;2.90;1.88;;;;;;;;;;4908033;28;20063;-80
2021/05/19 00:12:19;;;;;;;3.22;2.20;;;;;;;;;;4923578;28;20063;-80
2021/05/19 00:14:45;;;;;;;3.25;2.10;;;;;;;;;;4926147;28;20051;-80
2021/05/19 00:17:12;;;;;;;2.60;2.00;;;;;;;;;;4916639;28;20135;-80
2021/05/19 00:19:38;;;;;;;2.30;1.80;;;;;;;;;;4922903;28;20071;-80
2021/05/19 00:22:05;;;;;;;2.50;1.80;;;;;;;;;;4906297;28;20067;-81
2021/05/19 00:24:31;;;;;;;2.88;1.90;;;;;;;;;;4923294;28;20036;-79
2021/05/19 00:26:58;;;;;;;3.65;2.10;;;;;;;;;;4923788;28;20528;-79
2021/05/19 00:29:24;;;;;;;2.42;1.90;;;;;;;;;;4922252;28;20064;-80
2021/05/19 00:31:51;;;;;;;3.15;1.90;;;;;;;;;;4921458;28;20039;-81
2021/05/19 00:34:17;;;;;;;2.60;1.90;;;;;;;;;;4912984;29;20056;-80
2021/05/19 00:36:44;;;;;;;2.33;1.75;;;;;;;;;;4927596;28;20133;-81
2021/05/19 00:39:11;;;;;;;2.30;1.90;;;;;;;;;;4923138;28;20661;-80
2021/05/19 00:41:44;;;;;;;2.58;1.70;;;;;;;;;;4921693;28;20153;-79
2021/05/19 00:44:12;;;;;;;2.38;1.80;;;;;;;;;;4923048;28;20032;-80
2021/05/19 00:46:42;;;;;;;2.90;2.00;;;;;;;;;;4946585;28;20122;-80
2021/05/19 00:49:09;;;;;;;3.03;1.95;;;;;;;;;;4947592;28;20068;-80
2021/05/19 00:51:35;;;;;;;3.15;1.80;;;;;;;;;;4937092;28;20051;-81
2021/05/19 00:54:02;;;;;;;2.80;1.80;;;;;;;;;;4908152;28;20067;-81
2021/05/19 00:56:28;;;;;;;2.80;2.00;;;;;;;;;;4940931;28;20040;-81
2021/05/19 00:58:55;;;;;;;2.53;1.50;;;;;;;;;;4925334;28;20590;-81
2021/05/19 01:01:22;;;;;;;2.85;1.95;;;;;;;;;;4931953;28;20572;-81
2021/05/19 01:03:49;;;;;;;3.20;1.90;;;;;;;;;;4923342;29;20066;-82
2021/05/19 01:06:37;;;;;;;2.78;1.90;;;;;;;;;;4924616;28;20458;-81
2021/05/19 01:11:49;;;;;;;2.90;1.60;;;;;;;;;;4938813;28;20098;-82
2021/05/19 01:14:16;;;;;;;2.60;1.92;;;;;;;;;;4904899;29;20672;-81
2021/05/19 01:16:42;;;;;;;2.80;1.60;;;;;;;;;;4939878;28;20579;-81
2021/05/19 01:19:09;;;;;;;2.28;1.67;;;;;;;;;;4920027;28;20449;-81
2021/05/19 01:21:36;;;;;;;2.58;1.70;;;;;;;;;;4937965;28;20046;-82
2021/05/19 01:24:06;;;;;;;2.17;1.67;;;;;;;;;;4916503;28;20125;-82
2021/05/19 01:26:32;;;;;;;2.40;1.70;;;;;;;;;;4922674;28;20055;-82
2021/05/19 01:29:01;;;;;;;2.00;1.50;;;;;;;;;;4924999;28;20059;-82
2021/05/19 01:31:28;;;;;;;3.65;1.73;;;;;;;;;;4907855;29;20091;-82
2021/05/19 01:33:54;;;;;;;3.13;1.63;;;;;;;;;;4924344;28;20070;-83
2021/05/19 01:36:21;;;;;;;2.65;1.77;;;;;;;;;;4922313;28;20048;-83
2021/05/19 01:38:47;;;;;;;2.35;1.60;;;;;;;;;;4928182;28;20109;-82
2021/05/19 01:41:14;;;;;;;3.17;1.52;;;;;;;;;;4922729;28;20508;-83
2021/05/19 01:43:41;;;;;;;2.38;1.58;;;;;;;;;;4922667;28;20504;-83
2021/05/19 01:46:07;;;;;;;1.92;1.40;;;;;;;;;;4923007;28;20850;-83
2021/05/19 01:48:34;;;;;;;3.63;1.80;;;;;;;;;;4920450;28;20202;-83
2021/05/19 01:51:02;;;;;;;2.92;1.88;;;;;;;;;;4920688;28;20071;-83
2021/05/19 01:53:29;;;;;;;2.25;1.58;;;;;;;;;;4909097;29;20118;-83
2021/05/19 01:55:56;;;;;;;2.35;1.50;;;;;;;;;;4905437;28;20071;-82
2021/05/19 01:58:23;;;;;;;2.80;1.70;;;;;;;;;;4934072;28;20172;-80
2021/05/19 02:00:49;;;;;;;1.85;1.52;;;;;;;;;;4920425;28;20512;-81
2021/05/19 02:03:18;;;;;;;3.10;1.73;;;;;;;;;;4924841;28;20079;-82
2021/05/19 02:05:45;;;;;;;2.30;1.60;;;;;;;;;;4924183;28;20468;-82
2021/05/19 02:08:11;;;;;;;2.28;1.80;;;;;;;;;;4920191;28;20035;-82
2021/05/19 02:10:39;;;;;;;3.25;1.73;;;;;;;;;;4922128;28;20055;-83
2021/05/19 02:13:07;;;;;;;2.55;1.60;;;;;;;;;;4921428;28;20090;-83
2021/05/19 02:15:34;;;;;;;3.80;1.42;;;;;;;;;;4919287;28;20059;-83
2021/05/19 02:18:01;;;;;;;2.50;1.23;;;;;;;;;;4934385;28;20043;-83
2021/05/19 02:20:28;;;;;;;3.30;1.30;;;;;;;;;;4923150;28;20462;-83
2021/05/19 02:22:55;;;;;;;2.10;1.40;;;;;;;;;;4922142;28;20076;-82
2021/05/19 02:25:22;;;;;;;2.55;1.50;;;;;;;;;;4922558;28;20067;-83
2021/05/19 02:27:49;;;;;;;2.17;1.50;;;;;;;;;;4937444;28;20036;-82
2021/05/19 02:30:17;;;;;;;3.05;1.50;;;;;;;;;;4904874;29;20083;-82
2021/05/19 02:32:44;;;;;;;3.15;1.58;;;;;;;;;;4922494;28;20114;-82
2021/05/19 02:35:11;;;;;;;3.00;1.50;;;;;;;;;;4921950;28;20067;-83
2021/05/19 02:37:38;;;;;;;2.65;1.42;;;;;;;;;;4923807;28;20062;-79
2021/05/19 02:40:05;;;;;;;2.75;1.48;;;;;;;;;;4935296;28;20068;-79
2021/05/19 02:42:31;;;;;;;2.25;1.30;;;;;;;;;;4907300;29;20777;-81
2021/05/19 02:44:58;;;;;;;2.38;1.67;;;;;;;;;;4934460;28;20457;-81
2021/05/19 02:47:25;;;;;;;2.53;1.55;;;;;;;;;;4940613;28;20032;-79
2021/05/19 02:49:52;;;;;;;2.17;1.15;;;;;;;;;;4931948;28;20091;-80
2021/05/19 02:52:19;;;;;;;2.58;1.23;;;;;;;;;;4938608;28;20040;-80
2021/05/19 02:54:45;;;;;;;2.78;1.50;;;;;;;;;;4923891;28;20067;-80
2021/05/19 02:57:12;;;;;;;1.95;1.17;;;;;;;;;;4926081;28;20059;-80
2021/05/19 02:59:38;;;;;;;2.88;1.50;;;;;;;;;;4924530;28;20069;-80
2021/05/19 03:02:04;;;;;;;4.40;1.40;;;;;;;;;;4919560;28;20092;-80
2021/05/19 03:04:31;;;;;;;2.20;1.40;;;;;;;;;;4936625;28;20079;-81
2021/05/19 03:06:57;;;;;;;2.03;1.38;;;;;;;;;;4909171;28;20444;-81
2021/05/19 03:09:24;;;;;;;2.35;1.25;;;;;;;;;;4906930;28;20559;-80
2021/05/19 03:11:50;;;;;;;1.98;1.40;;;;;;;;;;4904749;28;20054;-81
2021/05/19 03:14:17;;;;;;;2.15;1.27;;;;;;;;;;4917790;28;20070;-79
2021/05/19 03:16:43;;;;;;;1.95;1.20;;;;;;;;;;4941470;28;20071;-78
2021/05/19 03:19:10;;;;;;;2.83;1.52;;;;;;;;;;4930914;28;20130;-79
2021/05/19 03:21:36;;;;;;;1.90;1.30;;;;;;;;;;4918181;28;20059;-79
2021/05/19 03:24:03;;;;;;;2.13;1.40;;;;;;;;;;4905433;28;20071;-79
2021/05/19 03:26:29;;;;;;;2.83;1.42;;;;;;;;;;4923349;28;20070;-80
2021/05/19 03:28:56;;;;;;;1.83;1.40;;;;;;;;;;4937692;28;20059;-81
2021/05/19 03:31:22;;;;;;;2.28;1.55;;;;;;;;;;4915807;28;20067;-81
2021/05/19 03:33:49;;;;;;;2.50;1.35;;;;;;;;;;4932187;28;20071;-80
2021/05/19 03:36:15;;;;;;;2.35;1.30;;;;;;;;;;4930451;28;20078;-79
2021/05/19 03:38:42;;;;;;;2.22;1.20;;;;;;;;;;4921690;28;20051;-79
2021/05/19 03:41:09;;;;;;;2.80;2.05;;;;;;;;;;4918010;28;20063;-79
2021/05/19 03:43:35;;;;;;;1.90;1.35;;;;;;;;;;4906548;28;20032;-79
2021/05/19 03:46:02;;;;;;;1.92;1.20;;;;;;;;;;4922626;28;20067;-79
2021/05/19 03:48:29;;;;;;;2.33;1.40;;;;;;;;;;4943290;28;20076;-80
2021/05/19 03:50:55;;;;;;;2.38;1.40;;;;;;;;;;4925209;28;20522;-78
2021/05/19 03:53:22;;;;;;;2.40;1.30;;;;;;;;;;4941671;28;20067;-81
2021/05/19 03:55:48;;;;;;;2.22;1.42;;;;;;;;;;4922978;28;20135;-80
2021/05/19 03:58:15;;;;;;;2.15;1.50;;;;;;;;;;4925174;28;20067;-80
2021/05/19 04:00:42;;;;;;;2.35;1.20;;;;;;;;;;4947067;28;20066;-80
2021/05/19 04:03:08;;;;;;;1.98;1.20;;;;;;;;;;4924297;28;20063;-81
2021/05/19 04:05:39;;;;;;;2.42;1.50;;;;;;;;;;4921412;28;20056;-80
2021/05/19 04:08:06;;;;;;;1.60;1.15;;;;;;;;;;4918902;28;20100;-80
2021/05/19 04:10:33;;;;;;;2.15;1.35;;;;;;;;;;4914567;28;20035;-79
2021/05/19 04:13:01;;;;;;;1.75;1.20;;;;;;;;;;4918756;28;20557;-81
2021/05/19 04:15:28;;;;;;;2.50;1.40;;;;;;;;;;4920039;28;20743;-81
2021/05/19 04:17:54;;;;;;;1.95;1.17;;;;;;;;;;4938562;28;20067;-81
2021/05/19 04:20:21;;;;;;;2.25;1.58;;;;;;;;;;4931222;28;20163;-82
2021/05/19 04:22:48;;;;;;;4.10;1.30;;;;;;;;;;4918816;28;20055;-82
2021/05/19 04:25:16;;;;;;;5.07;1.30;;;;;;;;;;4915857;28;20124;-82
2021/05/19 04:27:42;;;;;;;3.80;1.48;;;;;;;;;;4937247;28;20067;-81
2021/05/19 04:30:09;;;;;;;2.17;1.45;;;;;;;;;;4920171;28;20062;-81
2021/05/19 04:32:36;;;;;;;2.25;1.40;;;;;;;;;;4908135;29;20862;-81
2021/05/19 04:35:06;;;;;;;5.53;1.65;;;;;;;;;;4908053;28;20087;-84
2021/05/19 04:37:33;;;;;;;3.17;1.50;;;;;;;;;;4929789;28;20044;-82
2021/05/19 04:40:00;;;;;;;4.80;1.70;;;;;;;;;;4934070;28;20103;-82
2021/05/19 04:42:27;;;;;;;3.72;1.80;;;;;;;;;;4941744;28;20071;-82
2021/05/19 04:44:53;;;;;;;5.97;1.92;;;;;;;;;;4941617;28;20063;-81
2021/05/19 04:47:20;;;;;;;8.68;2.20;;;;;;;;;;4914067;28;20071;-82
2021/05/19 04:49:46;;;;;;;3.80;2.05;;;;;;;;;;4929561;28;20114;-82
2021/05/19 04:52:12;;;;;;;4.88;2.40;;;;;;;;;;4918148;28;20071;-84
2021/05/19 04:54:39;;;;;;;4.43;2.10;;;;;;;;;;4927927;28;20148;-80
2021/05/19 04:57:06;;;;;;;7.07;2.30;;;;;;;;;;4924685;28;20562;-81
2021/05/19 04:59:32;;;;;;;3.58;1.70;;;;;;;;;;4937013;28;20118;-82
2021/05/19 05:01:59;;;;;;;4.30;2.10;;;;;;;;;;4926365;28;20709;-81
2021/05/19 05:04:25;;;;;;;4.55;2.10;;;;;;;;;;4923756;28;20075;-82
2021/05/19 05:06:52;;;;;;;4.78;2.20;;;;;;;;;;4936362;28;20521;-82
2021/05/19 05:09:18;;;;;;;3.35;1.40;;;;;;;;;;4924309;28;20067;-85
2021/05/19 05:11:44;;;;;;;3.20;1.70;;;;;;;;;;4918564;29;20066;-84
2021/05/19 05:14:11;;;;;;;8.25;1.40;;;;;;;;;;4925391;28;20079;-84
2021/05/19 05:16:37;;;;;;;5.00;1.80;;;;;;;;;;4942746;28;20040;-81
2021/05/19 05:19:04;;;;;;;2.72;1.58;;;;;;;;;;4928680;28;20516;-84
2021/05/19 05:21:30;;;;;;;3.40;1.80;;;;;;;;;;4913878;29;20059;-81
2021/05/19 05:23:59;;;;;;;4.15;1.60;;;;;;;;;;4928325;28;20035;-85
2021/05/19 05:26:26;;;;;;;3.10;1.67;;;;;;;;;;4928071;29;20040;-86
2021/05/19 05:28:52;;;;;;;4.28;1.88;;;;;;;;;;4919296;28;20068;-86
2021/05/19 05:31:20;;;;;;;4.03;1.73;;;;;;;;;;4934102;28;20072;-87
2021/05/19 05:33:47;;;;;;;2.50;1.60;;;;;;;;;;4918456;29;20464;-88
2021/05/19 05:36:16;;;;;;;3.88;1.60;;;;;;;;;;4932941;28;20068;-89
2021/05/19 05:38:42;;;;;;;3.17;1.40;;;;;;;;;;4934117;28;20106;-90
2021/05/19 05:41:09;;;;;;;4.03;1.63;;;;;;;;;;4921739;28;20074;-85
2021/05/19 05:43:35;;;;;;;3.70;1.77;;;;;;;;;;4947158;28;20396;-83
2021/05/19 05:46:02;;;;;;;4.35;1.50;;;;;;;;;;4909490;28;20067;-84
2021/05/19 05:48:28;;;;;;;2.47;1.50;;;;;;;;;;4910379;28;20083;-83
2021/05/19 05:50:55;;;;;;;3.00;1.55;;;;;;;;;;4935479;28;20094;-82
2021/05/19 05:53:21;;;;;;;3.95;1.65;;;;;;;;;;4909488;28;20075;-83
2021/05/19 05:55:48;;;;;;;3.70;1.52;;;;;;;;;;4936230;28;20503;-82
2021/05/19 05:58:14;;;;;;;3.00;1.20;;;;;;;;;;4937577;28;20107;-82
2021/05/19 06:00:41;;;;;;;3.38;1.52;;;;;;;;;;4925093;28;20558;-82
2021/05/19 06:03:07;;;;;;;3.92;1.60;;;;;;;;;;4920772;28;20043;-82
2021/05/19 06:05:34;;;;;;;2.95;1.60;;;;;;;;;;4920113;28;20123;-83
2021/05/19 06:08:03;;;;;;;4.50;1.58;;;;;;;;;;4914358;28;20059;-84
2021/05/19 06:10:30;;;;;;;4.60;1.50;;;;;;;;;;4939784;28;20032;-85
2021/05/19 06:12:59;;;;;;;1.85;1.20;;;;;;;;;;4921773;28;20140;-83
2021/05/19 06:15:26;;;;;;;3.85;1.40;;;;;;;;;;4909013;28;20039;-84
2021/05/19 06:17:53;;;;;;;3.85;1.50;;;;;;;;;;4900408;28;20131;-85
2021/05/19 06:20:20;;;;;;;2.85;1.33;;;;;;;;;;4924006;28;20115;-86
2021/05/19 06:22:49;;;;;;;2.60;1.40;;;;;;;;;;4905349;28;20111;-88
2021/05/19 06:25:16;;;;;;;2.47;1.48;;;;;;;;;;4936548;28;20063;-88
2021/05/19 06:27:43;;;;;;;3.22;1.20;;;;;;;;;;4923225;28;20586;-86
2021/05/19 06:30:10;;;;;;;2.53;1.30;;;;;;;;;;4931775;28;20032;-86
2021/05/19 06:32:39;;;;;;;3.22;1.75;;;;;;;;;;4921764;28;20040;-86
2021/05/19 06:35:09;;;;;;;3.05;1.45;;;;;;;;;;4885629;28;20032;-91
2021/05/19 06:37:36;;;;;;;4.88;1.60;;;;;;;;;;4918234;28;20042;-90
2021/05/19 06:40:04;;;;;;;2.55;1.35;;;;;;;;;;4915838;28;20556;-90
2021/05/19 06:42:31;;;;;;;2.40;1.40;;;;;;;;;;4921336;28;20032;-91
2021/05/19 06:45:05;;;;;;;3.90;1.83;;;;;;;;;;4935908;28;20066;-90
2021/05/19 06:47:31;;;;;;;3.22;1.80;;;;;;;;;;4938563;28;20448;-86
2021/05/19 06:49:58;;;;;;;2.25;1.25;;;;;;;;;;4933750;28;20764;-87
2021/05/19 06:52:24;;;;;;;1.88;1.45;;;;;;;;;;4920061;28;20036;-82
2021/05/19 06:54:52;;;;;;;2.90;1.50;;;;;;;;;;4935187;28;20149;-83
2021/05/19 06:57:19;;;;;;;2.95;1.23;;;;;;;;;;4922133;28;20038;-84
2021/05/19 06:59:52;;;;;;;3.15;1.55;;;;;;;;;;4931587;28;20080;-85
2021/05/19 07:02:18;;;;;;;4.50;1.63;;;;;;;;;;4939811;28;20335;-83
2021/05/19 07:04:45;;;;;;;2.45;1.25;;;;;;;;;;4931612;28;20092;-84
2021/05/19 07:07:11;;;;;;;3.45;1.65;;;;;;;;;;4913874;28;20099;-84
2021/05/19 07:09:38;;;;;;;3.88;1.65;;;;;;;;;;4938247;28;20122;-83
2021/05/19 07:12:05;;;;;;;4.35;1.58;;;;;;;;;;4927956;28;20059;-86
2021/05/19 07:14:35;;;;;;;4.95;2.03;;;;;;;;;;4945111;28;20378;-86
2021/05/19 07:17:01;;;;;;;2.80;1.48;;;;;;;;;;4917273;28;20708;-86
2021/05/19 07:19:28;;;;;;;4.05;1.30;;;;;;;;;;4920754;28;20138;-88
2021/05/19 07:21:54;;;;;;;3.80;1.60;;;;;;;;;;4925328;28;20055;-88
2021/05/19 07:24:21;;;;;;;2.95;1.17;;;;;;;;;;4941670;28;20076;-86
2021/05/19 07:26:50;;;;;;;3.53;1.50;;;;;;;;;;4934262;29;20035;-88
2021/05/19 07:29:17;;;;;;;2.35;1.45;;;;;;;;;;4926151;28;20108;-89
2021/05/19 07:31:45;;;;;;;2.38;1.35;;;;;;;;;;4934466;28;20046;-86
2021/05/19 07:34:12;;;;;;;2.20;1.48;;;;;;;;;;4928750;28;20067;-88
2021/05/19 07:36:39;;;;;;;2.33;1.40;;;;;;;;;;4928941;28;20046;-89
2021/05/19 07:39:26;;;;;;;2.47;1.20;;;;;;;;;;4936397;28;20071;-86
2021/05/19 07:41:53;;;;;;;2.30;1.20;;;;;;;;;;4929844;28;20039;-87
2021/05/19 07:44:19;;;;;;;2.20;1.20;;;;;;;;;;4944428;28;20502;-89
2021/05/19 07:46:46;;;;;;;2.75;1.30;;;;;;;;;;4919267;29;20047;-87
2021/05/19 07:49:14;;;;;;;3.30;1.50;;;;;;;;;;4921561;28;20771;-89
2021/05/19 07:51:42;;;;;;;2.53;1.20;;;;;;;;;;4928242;28;20507;-89
2021/05/19 07:54:15;;;;;;;3.70;1.30;;;;;;;;;;4931616;28;20087;-86
2021/05/19 07:59:45;;;;;;;3.40;1.40;;;;;;;;;;4935344;28;20496;-82
2021/05/19 08:02:13;;;;;;;4.03;1.52;;;;;;;;;;4918074;28;20214;-83
2021/05/19 08:04:40;;;;;;;3.15;1.17;;;;;;;;;;4937267;28;20495;-84
2021/05/19 08:07:07;;;;;;;3.13;1.30;;;;;;;;;;4931383;28;20091;-85
2021/05/19 08:09:34;;;;;;;3.72;1.45;;;;;;;;;;4910857;28;20107;-82
2021/05/19 08:12:01;;;;;;;2.83;1.77;;;;;;;;;;4912762;28;20046;-83
2021/05/19 08:14:33;;;;;;;5.45;1.63;;;;;;;;;;4929298;28;20507;-82
2021/05/19 08:17:09;;;;;;;2.28;1.65;;;;;;;;;;4910176;28;20062;-82
2021/05/19 08:19:35;;;;;;;3.10;1.70;;;;;;;;;;4918109;28;20083;-81
2021/05/19 08:22:12;;;;;;;3.55;1.80;;;;;;;;;;4915530;28;20082;-82
2021/05/19 08:24:48;;;;;;;3.38;1.73;;;;;;;;;;4918175;28;20076;-81
2021/05/19 08:27:33;;;;;;;;;;;;;;;;;;;;;
2021/05/19 08:30:12;;;;;;;5.93;1.90;;;;;;;;;;4905580;28;20043;-80
2021/05/19 08:32:39;;;;;;;3.85;1.73;;;;;;;;;;4917895;28;20496;-82
2021/05/19 08:35:13;;;;;;;3.40;1.70;;;;;;;;;;4924063;28;20499;-82
2021/05/19 08:37:48;;;;;;;2.40;1.50;;;;;;;;;;4904462;29;20039;-85
2021/05/19 08:40:15;;;;;;;5.65;1.88;;;;;;;;;;4937813;28;20040;-82
2021/05/19 08:42:41;;;;;;;8.75;1.77;;;;;;;;;;4928928;28;20082;-84
2021/05/19 08:45:09;;;;;;;5.03;1.95;;;;;;;;;;4929381;28;20039;-84
2021/05/19 08:47:44;;;;;;;4.00;1.55;;;;;;;;;;4943112;28;20035;-88
2021/05/19 08:50:14;;;;;;;3.88;1.52;;;;;;;;;;4948001;28;20105;-89
2021/05/19 08:52:46;;;;;;;1.77;1.40;;;;;;;;;;4952577;28;20087;-90
2021/05/19 08:55:21;;;;;;;4.18;1.30;;;;;;;;;;4947321;28;20387;-91
2021/05/19 08:57:50;;;;;;;2.13;1.20;;;;;;;;;;4942620;28;20067;-83
2021/05/19 09:00:17;;;;;;;2.15;1.20;;;;;;;;;;4949890;28;20130;-84
2021/05/19 09:03:03;;;;;;;5.80;1.88;;;;;;;;;;4933733;28;20047;-84
2021/05/19 09:05:33;;;;;;;3.10;1.20;;;;;;;;;;4923544;28;22380;-84
2021/05/19 09:08:04;;;;;;;1.90;1.30;;;;;;;;;;4944629;28;20095;-84
2021/05/19 09:10:31;;;;;;;2.00;1.23;;;;;;;;;;4913038;29;20051;-84
2021/05/19 09:12:57;;;;;;;2.83;1.40;;;;;;;;;;4916324;28;20039;-84
2021/05/19 09:15:24;;;;;;;3.03;1.40;;;;;;;;;;4940346;28;20068;-84
2021/05/19 09:17:55;;;;;;;3.00;1.33;;;;;;;;;;4941700;28;20192;-84
2021/05/19 09:20:21;;;;;;;2.07;1.27;;;;;;;;;;4934019;28;20063;-82
2021/05/19 09:22:51;;;;;;;11.13;1.27;;;;;;;;;;4920444;28;20063;-84
2021/05/19 09:25:22;;;;;;;4.60;1.42;;;;;;;;;;4942145;28;20503;-82
2021/05/19 09:27:52;;;;;;;3.97;1.45;;;;;;;;;;4917645;28;20067;-82
2021/05/19 09:30:34;;;;;;;3.83;1.30;;;;;;;;;;4928709;28;20031;-82
2021/05/19 09:33:11;;;;;;;1.75;1.20;;;;;;;;;;4940478;28;20047;-82
2021/05/19 09:35:37;;;;;;;2.13;1.20;;;;;;;;;;4922694;28;20476;-80
2021/05/19 09:38:04;;;;;;;1.63;0.98;;;;;;;;;;4925967;28;20463;-81
2021/05/19 09:40:30;;;;;;;2.30;0.90;;;;;;;;;;4923329;28;20699;-81
2021/05/19 09:43:02;;;;;;;2.00;1.30;;;;;;;;;;4940417;28;20122;-82
2021/05/19 09:45:31;;;;;;;2.20;1.30;;;;;;;;;;4928702;28;20118;-81
2021/05/19 09:47:58;;;;;;;2.20;1.23;;;;;;;;;;4905784;28;20123;-82
2021/05/19 09:50:39;;;;;;;1.50;1.00;;;;;;;;;;4935226;28;20495;-81
2021/05/19 09:53:07;;;;;;;4.45;1.27;;;;;;;;;;4916256;28;20072;-82
2021/05/19 09:55:34;;;;;;;1.60;1.13;;;;;;;;;;4928329;28;20059;-83
2021/05/19 09:58:00;;;;;;;2.88;1.10;;;;;;;;;;4932961;28;20091;-81
2021/05/19 10:00:28;;;;;;;1.67;1.10;;;;;;;;;;4900320;29;20110;-83
2021/05/19 10:02:55;;;;;;;2.83;1.30;;;;;;;;;;4935408;28;20063;-82
2021/05/19 10:05:30;;;;;;;1.98;1.15;;;;;;;;;;4918673;28;20563;-82
2021/05/19 10:07:56;;;;;;;2.25;1.40;;;;;;;;;;4905035;28;20051;-84
2021/05/19 10:10:23;;;;;;;2.35;1.20;;;;;;;;;;4917610;28;20044;-82
2021/05/19 10:12:50;;;;;;;5.70;1.30;;;;;;;;;;4924826;28;20099;-83
2021/05/19 10:15:23;;;;;;;1.70;1.20;;;;;;;;;;4933428;28;20064;-81
2021/05/19 10:17:52;;;;;;;3.85;1.80;;;;;;;;;;4919483;28;20135;-81
2021/05/19 10:20:21;;;;;;;4.60;2.50;;;;;;;;;;4936086;28;20152;-81
2021/05/19 10:22:49;;;;;;;4.05;2.20;;;;;;;;;;4937438;28;20512;-80
2021/05/19 10:25:34;;;;;;;2.80;1.90;;;;;;;;;;4906830;28;20063;-81
2021/05/19 10:28:02;;;;;;;4.55;1.88;;;;;;;;;;4940545;28;20059;-81
2021/05/19 10:30:40;;;;;;;2.80;1.77;;;;;;;;;;4917520;28;20575;-82
2021/05/19 10:33:32;;;;;;;4.10;1.80;;;;;;;;;;4917959;28;20040;-81
2021/05/19 10:36:00;;;;;;;2.20;1.48;;;;;;;;;;4912983;28;20456;-80
2021/05/19 10:38:34;;;;;;;2.88;1.30;;;;;;;;;;4904424;28;20060;-82
2021/05/19 10:41:01;;;;;;;2.38;1.40;;;;;;;;;;4934279;28;20063;-83
2021/05/19 10:43:47;;;;;;;3.67;1.45;;;;;;;;;;4932357;28;20095;-83
2021/05/19 10:46:14;;;;;;;2.80;1.55;;;;;;;;;;4914634;28;20043;-82
2021/05/19 10:48:41;;;;;;;2.47;1.33;;;;;;;;;;4898872;29;20036;-83
2021/05/19 10:51:27;;;;;;;3.60;1.40;;;;;;;;;;4913785;28;20040;-82
2021/05/19 10:59:52;;;;;;;2.03;1.30;;;;;;;;;;4933723;28;20144;-83
2021/05/19 11:02:19;;;;;;;2.08;1.30;;;;;;;;;;4948102;28;20039;-83
2021/05/19 11:05:05;;;;;;;1.73;1.27;;;;;;;;;;4927532;28;20535;-80
2021/05/19 11:07:34;;;;;;;2.58;1.33;;;;;;;;;;4927719;28;21596;-84
2021/05/19 11:10:21;;;;;;;1.75;1.25;;;;;;;;;;4921202;28;20047;-85
2021/05/19 11:12:54;;;;;;;2.30;1.10;;;;;;;;;;4912290;28;20820;-85
2021/05/19 11:18:18;;;;;;;2.67;1.20;;;;;;;;;;4925802;28;20052;-84
2021/05/19 11:20:45;;;;;;;3.97;1.10;;;;;;;;;;4916965;29;20103;-84
2021/05/19 11:23:13;;;;;;;2.42;1.25;;;;;;;;;;4920574;28;20095;-83
2021/05/19 11:25:41;;;;;;;2.22;1.25;;;;;;;;;;4919174;28;20069;-84
2021/05/19 11:28:07;;;;;;;1.35;0.90;;;;;;;;;;4926904;28;20079;-83
2021/05/19 11:30:35;;;;;;;2.30;1.27;;;;;;;;;;4919403;29;20107;-83
2021/05/19 11:33:14;;;;;;;1.80;1.30;;;;;;;;;;4925104;28;20602;-82
2021/05/19 11:35:41;;;;;;;2.65;1.33;;;;;;;;;;4948256;28;20063;-83
2021/05/19 11:38:11;;;;;;;1.77;0.98;;;;;;;;;;4935817;28;20055;-83
2021/05/19 11:40:51;;;;;;;4.28;1.58;;;;;;;;;;4943919;28;20071;-83
2021/05/19 11:43:20;;;;;;;2.15;1.30;;;;;;;;;;4951751;28;20716;-85
2021/05/19 11:45:53;;;;;;;3.33;1.20;;;;;;;;;;4920870;29;20511;-82
2021/05/19 11:48:28;;;;;;;1.92;1.27;;;;;;;;;;4941415;28;20100;-82
2021/05/19 11:50:54;;;;;;;3.85;1.20;;;;;;;;;;4924252;28;20131;-83
2021/05/19 11:53:21;;;;;;;4.50;1.50;;;;;;;;;;4915887;28;20035;-83
2021/05/19 11:55:52;;;;;;;2.67;1.30;;;;;;;;;;4927219;28;20056;-83
2021/05/19 11:58:21;;;;;;;2.80;1.00;;;;;;;;;;4904287;28;20071;-83
2021/05/19 12:01:07;;;;;;;2.17;1.40;;;;;;;;;;4913876;29;20075;-85
2021/05/19 12:03:35;;;;;;;3.60;1.30;;;;;;;;;;4922415;28;20040;-85
2021/05/19 12:06:10;;;;;;;2.05;1.10;;;;;;;;;;4940922;28;20571;-82
2021/05/19 12:08:41;;;;;;;1.98;1.10;;;;;;;;;;4940639;28;20059;-81
2021/05/19 12:11:11;;;;;;;2.95;1.30;;;;;;;;;;4930975;28;20056;-83
2021/05/19 12:13:39;;;;;;;3.30;1.20;;;;;;;;;;4940368;28;20119;-81
2021/05/19 12:16:09;;;;;;;1.42;1.00;;;;;;;;;;4926739;28;20134;-80
2021/05/19 12:18:36;;;;;;;2.40;1.10;;;;;;;;;;4932639;28;20082;-80
2021/05/19 12:21:09;;;;;;;2.58;1.10;;;;;;;;;;4940074;28;20126;-82
2021/05/19 12:23:37;;;;;;;3.08;1.20;;;;;;;;;;4929048;28;20470;-81
2021/05/19 12:26:03;;;;;;;1.60;1.30;;;;;;;;;;4931929;28;20031;-82
2021/05/19 12:28:30;;;;;;;3.75;1.50;;;;;;;;;;4920241;29;20442;-82
2021/05/19 12:31:00;;;;;;;4.28;1.30;;;;;;;;;;4924277;28;20071;-82
2021/05/19 12:33:45;;;;;;;1.98;1.15;;;;;;;;;;4938343;28;20491;-82
2021/05/19 12:36:29;;;;;;;3.70;1.33;;;;;;;;;;4933025;28;20122;-82
2021/05/19 12:38:58;;;;;;;1.67;1.17;;;;;;;;;;4929913;28;20461;-82
2021/05/19 12:41:43;;;;;;;1.77;1.10;;;;;;;;;;4940143;28;20068;-81
2021/05/19 12:44:11;;;;;;;2.17;1.10;;;;;;;;;;4926259;28;20087;-80
2021/05/19 12:46:37;;;;;;;1.73;1.10;;;;;;;;;;4926964;28;20047;-80
2021/05/19 12:49:10;;;;;;;2.63;1.27;;;;;;;;;;4919225;28;20060;-82
2021/05/19 12:51:49;;;;;;;2.58;1.20;;;;;;;;;;4940762;28;20067;-81
2021/05/19 12:54:20;;;;;;;1.83;1.17;;;;;;;;;;4922228;28;20071;-77
2021/05/19 12:56:58;;;;;;;2.05;1.20;;;;;;;;;;4926350;28;20106;-81
2021/05/19 12:59:24;;;;;;;4.78;1.10;;;;;;;;;;4913694;28;20643;-80
2021/05/19 13:01:52;;;;;;;2.45;1.35;;;;;;;;;;4935078;28;21303;-79
2021/05/19 13:04:21;;;;;;;2.67;1.30;;;;;;;;;;4913646;28;20048;-80
2021/05/19 13:06:52;;;;;;;2.22;1.38;;;;;;;;;;4923581;28;20055;-80
2021/05/19 13:09:23;;;;;;;3.57;1.60;;;;;;;;;;4922361;28;20079;-80
2021/05/19 13:12:06;;;;;;;2.78;1.30;;;;;;;;;;4921113;28;20515;-80
2021/05/19 13:14:34;;;;;;;2.58;1.40;;;;;;;;;;4922469;28;20570;-79
2021/05/19 13:17:05;;;;;;;2.97;1.30;;;;;;;;;;4927104;28;20063;-79
2021/05/19 13:19:31;;;;;;;4.25;1.50;;;;;;;;;;4941593;28;20071;-79
2021/05/19 13:21:58;;;;;;;2.03;1.27;;;;;;;;;;4935744;28;20080;-80
2021/05/19 13:24:25;;;;;;;3.20;1.58;;;;;;;;;;4932655;28;20040;-79
2021/05/19 13:27:02;;;;;;;2.47;1.40;;;;;;;;;;4919512;29;20040;-80
2021/05/19 13:29:32;;;;;;;3.13;1.38;;;;;;;;;;4907828;29;20044;-79
2021/05/19 13:32:22;;;;;;;3.55;1.40;;;;;;;;;;4907763;28;20036;-80
2021/05/19 13:37:34;;;;;;;3.70;1.58;;;;;;;;;;4916567;28;20091;-81
2021/05/19 13:40:01;;;;;;;3.20;1.52;;;;;;;;;;4921394;28;20556;-80
2021/05/19 13:42:27;;;;;;;2.13;1.50;;;;;;;;;;4943970;28;20111;-81
2021/05/19 13:44:59;;;;;;;4.38;1.63;;;;;;;;;;4939492;28;20201;-81
2021/05/19 13:47:25;;;;;;;2.65;1.58;;;;;;;;;;4937081;28;20106;-81
2021/05/19 13:49:55;;;;;;;3.15;1.40;;;;;;;;;;4946646;28;20127;-80
2021/05/19 13:52:22;;;;;;;3.58;1.25;;;;;;;;;;4914867;28;20250;-79
2021/05/19 13:54:49;;;;;;;2.47;1.50;;;;;;;;;;4924399;28;20038;-79
2021/05/19 13:57:16;;;;;;;2.60;1.50;;;;;;;;;;4938187;28;20035;-80
2021/05/19 13:59:43;;;;;;;2.90;1.42;;;;;;;;;;4941464;28;20048;-79
2021/05/19 14:02:12;;;;;;;3.97;1.45;;;;;;;;;;4935157;28;20068;-79
2021/05/19 14:04:39;;;;;;;2.20;1.48;;;;;;;;;;4920450;29;20063;-79
2021/05/19 14:07:05;;;;;;;2.53;1.30;;;;;;;;;;4923204;28;20566;-79
2021/05/19 14:09:32;;;;;;;2.63;1.55;;;;;;;;;;4922201;28;20484;-78
2021/05/19 14:12:05;;;;;;;3.58;1.52;;;;;;;;;;4930243;28;20059;-79
2021/05/19 14:14:46;;;;;;;2.83;1.52;;;;;;;;;;4944397;28;20114;-79
2021/05/19 14:28:16;;;;;;;2.75;1.23;;;;;;;;;;4922653;28;20040;-79
2021/05/19 14:30:42;;;;;;;2.20;1.42;;;;;;;;;;4940570;28;20095;-79
2021/05/19 14:33:08;;;;;;;3.60;1.40;;;;;;;;;;4926120;28;20063;-80
2021/05/19 14:47:17;;;;;;;3.70;1.30;;;;;;;;;;4936157;28;20095;-78
2021/05/19 15:00:14;;;;;;;1.77;1.40;;;;;;;;;;4920445;28;20091;-78
2021/05/19 15:02:42;;;;;;;2.63;1.38;;;;;;;;;;4919655;28;20040;-78
2021/05/19 15:05:10;;;;;;;2.60;1.30;;;;;;;;;;4919811;28;20048;-78
2021/05/19 15:07:36;;;;;;;2.80;1.50;;;;;;;;;;4922181;28;20452;-79
2021/05/19 15:10:03;;;;;;;2.72;1.33;;;;;;;;;;4940231;28;20035;-81
2021/05/19 15:12:31;;;;;;;3.17;1.50;;;;;;;;;;4921988;28;20067;-80
2021/05/19 15:14:57;;;;;;;2.40;1.55;;;;;;;;;;4934286;28;20068;-80
2021/05/19 15:17:24;;;;;;;1.90;1.30;;;;;;;;;;4915912;28;20628;-79
2021/05/19 15:19:50;;;;;;;2.85;1.60;;;;;;;;;;4934299;28;20500;-80
2021/05/19 15:22:16;;;;;;;3.65;1.40;;;;;;;;;;4923251;28;20202;-79
2021/05/19 15:24:44;;;;;;;3.35;1.48;;;;;;;;;;4926840;28;20903;-79
2021/05/19 15:27:11;;;;;;;2.50;1.52;;;;;;;;;;4925020;28;20130;-79
2021/05/19 15:29:39;;;;;;;3.22;1.35;;;;;;;;;;4921824;28;20040;-80
2021/05/19 15:32:08;;;;;;;4.82;1.70;;;;;;;;;;4923778;28;20789;-80
2021/05/19 15:34:35;;;;;;;4.50;1.75;;;;;;;;;;4903554;29;20031;-80
2021/05/19 15:37:01;;;;;;;6.38;1.85;;;;;;;;;;4925993;28;20091;-79
2021/05/19 15:39:28;;;;;;;3.40;1.73;;;;;;;;;;4944827;28;20554;-80
2021/05/19 15:41:55;;;;;;;4.75;1.63;;;;;;;;;;4941586;28;20067;-80